Home   Weather   Spain   Arrecife   Past weeks
Flag for Spain

Past Weather in Arrecife, Las Palmas, Spain — Yesterday and Last 2 Weeks

Currently: 77 °F. Scattered clouds. (Weather station: Lanzarote / Aeropuerto, Spain). See more current weather

Past Weather in Arrecife — Graph

°F

Arrecife Temperature Yesterday

Maximum temperature yesterday: 77 °F (at 6:00 pm)
Minimum temperature yesterday: 64 °F (at 4:00 am)
Average temperature yesterday: 69 °F

High & Low Weather Summary for the Past Weeks

 TemperatureHumidityPressure
High86 °F (Apr 16, 1:30 pm)100% (Apr 13, 5:30 am)30.15 "Hg (Apr 13, 5:30 am)
Low59 °F (Apr 13, 6:00 am)12% (Apr 12, 12:00 am)29.74 "Hg (Apr 5, 5:00 pm)
Average71 °F66%30.00 "Hg
* Reported Apr 5 2:00 pm — Apr 20 2:00 pm, Arrecife. Weather by CustomWeather, © 2024

Note: Actual official high and low records may vary slightly from our data, if they occured in-between our weather recording intervals... More about our weather records

Arrecife Weather History for the Previous 24 Hours

Scroll right to see more
 ConditionsComfort  
Time TempWeatherWind HumidityBarometerVisibility
2:00 pm
Sat, Apr 20
75 °FScattered clouds.15 mph50%30.01 "HgN/A
1:30 pm75 °FScattered clouds.10 mph47%30.01 "HgN/A
1:00 pm75 °FPartly sunny.10 mph50%30.01 "HgN/A
12:30 pm75 °FScattered clouds.12 mph50%30.01 "HgN/A
12:00 pm73 °FScattered clouds.9 mph50%30.04 "HgN/A
11:30 am73 °FScattered clouds.12 mph50%30.04 "HgN/A
11:00 am72 °FScattered clouds.12 mph57%30.04 "HgN/A
10:30 am72 °FScattered clouds.14 mph57%30.04 "HgN/A
10:00 am70 °FScattered clouds.14 mph60%30.01 "HgN/A
9:30 am70 °FPassing clouds.13 mph60%30.01 "HgN/A
9:00 am68 °FPassing clouds.14 mph69%30.01 "HgN/A
8:30 am68 °FPassing clouds.10 mph69%30.01 "HgN/A
8:00 am66 °FPassing clouds.9 mph73%30.01 "HgN/A
7:30 am66 °FPassing clouds.12 mph68%30.01 "HgN/A
7:00 am66 °FPassing clouds.9 mph68%30.01 "HgN/A
6:30 am64 °FPassing clouds.8 mph73%29.98 "HgN/A
6:00 am66 °FPassing clouds.9 mph68%29.98 "HgN/A
5:30 am66 °FClear.10 mph73%29.98 "Hg10 mi
5:00 am66 °FPassing clouds.9 mph73%29.98 "HgN/A
4:30 am66 °FClear.8 mph78%29.98 "Hg10 mi
4:00 am66 °FClear.8 mph78%29.98 "Hg10 mi
3:30 am66 °FClear.10 mph78%29.98 "Hg10 mi
3:00 am68 °FPassing clouds.7 mph73%30.01 "HgN/A
2:30 am66 °FClear.10 mph73%30.01 "Hg10 mi
2:00 am68 °FClear.10 mph69%30.04 "Hg10 mi
1:30 am68 °FClear.12 mph69%30.04 "Hg10 mi
1:00 am68 °FPassing clouds.12 mph73%30.04 "HgN/A
12:30 am68 °FPassing clouds.10 mph73%30.04 "HgN/A
12:00 am68 °FPassing clouds.10 mph73%30.04 "HgN/A
11:30 pm
Fri, Apr 19
68 °FPassing clouds.12 mph73%30.04 "HgN/A
11:00 pm68 °FPassing clouds.12 mph73%30.04 "HgN/A
10:30 pm68 °FPassing clouds.12 mph73%30.04 "HgN/A
10:00 pm68 °FPassing clouds.12 mph73%30.04 "HgN/A
9:30 pm70 °FPassing clouds.12 mph69%30.04 "HgN/A
9:00 pm70 °FPassing clouds.12 mph69%30.04 "HgN/A
8:00 pm72 °FPassing clouds.15 mph65%30.01 "HgN/A
7:30 pm73 °FPassing clouds.13 mph61%30.01 "HgN/A
7:00 pm75 °FPassing clouds.15 mph54%29.98 "HgN/A
6:30 pm73 °FScattered clouds.13 mph53%29.98 "HgN/A
6:00 pm77 °FScattered clouds.12 mph47%29.98 "HgN/A
5:30 pm73 °FScattered clouds.8 mph61%29.98 "HgN/A
5:00 pm73 °FScattered clouds.7 mph65%30.01 "HgN/A
4:30 pm73 °FScattered clouds.9 mph65%30.01 "HgN/A
4:00 pm73 °FScattered clouds.8 mph69%30.01 "HgN/A
3:00 pm70 °FScattered clouds.12 mph78%30.01 "HgN/A
Weather by CustomWeather, © 2024

See weather overview